sensor_id;sensor_type;location;lat;lon;timestamp;P1;durP1;ratioP1;P2;durP2;ratioP2
261;SDS011;114;48.260;10.988;2023-03-01T00:01:02;19.13;;;14.07;;
261;SDS011;114;48.260;10.988;2023-03-01T00:03:32;16.57;;;13.30;;
261;SDS011;114;48.260;10.988;2023-03-01T00:05:59;18.20;;;13.03;;
261;SDS011;114;48.260;10.988;2023-03-01T00:08:25;17.23;;;13.37;;
261;SDS011;114;48.260;10.988;2023-03-01T00:11:02;17.83;;;13.00;;
261;SDS011;114;48.260;10.988;2023-03-01T00:13:34;19.07;;;14.50;;
261;SDS011;114;48.260;10.988;2023-03-01T00:16:03;19.80;;;15.00;;
261;SDS011;114;48.260;10.988;2023-03-01T00:18:30;19.33;;;14.47;;
261;SDS011;114;48.260;10.988;2023-03-01T00:20:58;22.03;;;13.97;;
261;SDS011;114;48.260;10.988;2023-03-01T00:23:24;17.27;;;13.20;;
261;SDS011;114;48.260;10.988;2023-03-01T00:25:50;21.03;;;14.73;;
261;SDS011;114;48.260;10.988;2023-03-01T00:28:17;20.03;;;14.27;;
261;SDS011;114;48.260;10.988;2023-03-01T00:30:43;18.57;;;13.83;;
261;SDS011;114;48.260;10.988;2023-03-01T00:33:09;19.63;;;13.67;;
261;SDS011;114;48.260;10.988;2023-03-01T00:35:35;18.13;;;14.13;;
261;SDS011;114;48.260;10.988;2023-03-01T00:38:01;20.97;;;13.83;;
261;SDS011;114;48.260;10.988;2023-03-01T00:40:29;17.53;;;14.20;;
261;SDS011;114;48.260;10.988;2023-03-01T00:42:56;16.33;;;13.07;;
261;SDS011;114;48.260;10.988;2023-03-01T00:45:22;22.40;;;13.90;;
261;SDS011;114;48.260;10.988;2023-03-01T00:47:49;19.30;;;13.80;;
261;SDS011;114;48.260;10.988;2023-03-01T00:50:15;24.20;;;14.33;;
261;SDS011;114;48.260;10.988;2023-03-01T00:52:41;22.10;;;14.17;;
261;SDS011;114;48.260;10.988;2023-03-01T00:55:07;19.13;;;13.73;;
261;SDS011;114;48.260;10.988;2023-03-01T00:57:33;21.47;;;15.27;;
261;SDS011;114;48.260;10.988;2023-03-01T00:59:59;22.13;;;14.57;;
261;SDS011;114;48.260;10.988;2023-03-01T01:02:25;21.70;;;13.50;;
261;SDS011;114;48.260;10.988;2023-03-01T01:04:51;20.10;;;13.43;;
261;SDS011;114;48.260;10.988;2023-03-01T01:07:17;18.30;;;12.60;;
261;SDS011;114;48.260;10.988;2023-03-01T01:09:45;18.20;;;14.10;;
261;SDS011;114;48.260;10.988;2023-03-01T01:12:11;16.63;;;12.50;;
261;SDS011;114;48.260;10.988;2023-03-01T01:14:37;19.50;;;13.27;;
261;SDS011;114;48.260;10.988;2023-03-01T01:17:03;22.30;;;15.30;;
261;SDS011;114;48.260;10.988;2023-03-01T01:19:29;24.20;;;14.47;;
261;SDS011;114;48.260;10.988;2023-03-01T01:21:55;19.60;;;14.70;;
261;SDS011;114;48.260;10.988;2023-03-01T01:24:21;18.73;;;14.20;;
261;SDS011;114;48.260;10.988;2023-03-01T01:26:47;19.10;;;13.10;;
261;SDS011;114;48.260;10.988;2023-03-01T01:29:13;18.60;;;13.30;;
261;SDS011;114;48.260;10.988;2023-03-01T01:31:40;17.63;;;14.20;;
261;SDS011;114;48.260;10.988;2023-03-01T01:34:07;18.43;;;14.23;;
261;SDS011;114;48.260;10.988;2023-03-01T01:36:37;17.13;;;13.43;;
261;SDS011;114;48.260;10.988;2023-03-01T01:39:03;19.77;;;13.90;;
261;SDS011;114;48.260;10.988;2023-03-01T01:41:29;21.90;;;15.60;;
261;SDS011;114;48.260;10.988;2023-03-01T01:44:12;22.13;;;14.83;;
261;SDS011;114;48.260;10.988;2023-03-01T01:46:39;19.60;;;14.43;;
261;SDS011;114;48.260;10.988;2023-03-01T01:49:31;18.90;;;13.13;;
261;SDS011;114;48.260;10.988;2023-03-01T01:55:02;18.53;;;14.00;;
261;SDS011;114;48.260;10.988;2023-03-01T01:57:49;19.60;;;12.73;;
261;SDS011;114;48.260;10.988;2023-03-01T02:00:20;17.57;;;13.50;;
261;SDS011;114;48.260;10.988;2023-03-01T02:02:48;16.03;;;12.87;;
261;SDS011;114;48.260;10.988;2023-03-01T02:05:40;17.50;;;13.43;;
261;SDS011;114;48.260;10.988;2023-03-01T02:08:12;20.27;;;13.47;;
261;SDS011;114;48.260;10.988;2023-03-01T02:10:39;23.70;;;15.00;;
261;SDS011;114;48.260;10.988;2023-03-01T02:13:06;22.40;;;14.97;;
261;SDS011;114;48.260;10.988;2023-03-01T02:15:33;22.43;;;13.90;;
261;SDS011;114;48.260;10.988;2023-03-01T02:18:00;20.00;;;14.30;;
261;SDS011;114;48.260;10.988;2023-03-01T02:20:33;17.67;;;13.47;;
261;SDS011;114;48.260;10.988;2023-03-01T02:23:14;20.17;;;13.90;;
261;SDS011;114;48.260;10.988;2023-03-01T02:25:49;18.40;;;12.73;;
261;SDS011;114;48.260;10.988;2023-03-01T02:28:43;21.00;;;14.20;;
261;SDS011;114;48.260;10.988;2023-03-01T02:31:10;17.13;;;12.90;;
261;SDS011;114;48.260;10.988;2023-03-01T02:34:00;18.90;;;14.63;;
261;SDS011;114;48.260;10.988;2023-03-01T02:36:51;19.27;;;13.70;;
261;SDS011;114;48.260;10.988;2023-03-01T02:39:42;17.77;;;13.67;;
261;SDS011;114;48.260;10.988;2023-03-01T02:42:14;17.87;;;12.43;;
261;SDS011;114;48.260;10.988;2023-03-01T02:44:44;16.17;;;12.60;;
261;SDS011;114;48.260;10.988;2023-03-01T02:47:10;19.33;;;14.30;;
261;SDS011;114;48.260;10.988;2023-03-01T02:49:37;19.90;;;14.40;;
261;SDS011;114;48.260;10.988;2023-03-01T02:54:46;18.53;;;13.40;;
261;SDS011;114;48.260;10.988;2023-03-01T02:57:17;17.87;;;13.30;;
261;SDS011;114;48.260;10.988;2023-03-01T02:59:44;20.17;;;14.57;;
261;SDS011;114;48.260;10.988;2023-03-01T03:02:23;23.43;;;14.90;;
261;SDS011;114;48.260;10.988;2023-03-01T03:05:12;17.87;;;13.00;;
261;SDS011;114;48.260;10.988;2023-03-01T03:07:43;15.57;;;13.33;;
261;SDS011;114;48.260;10.988;2023-03-01T03:10:13;19.10;;;13.27;;
261;SDS011;114;48.260;10.988;2023-03-01T03:12:43;18.87;;;13.63;;
261;SDS011;114;48.260;10.988;2023-03-01T03:15:13;18.33;;;13.67;;
261;SDS011;114;48.260;10.988;2023-03-01T03:17:39;17.47;;;13.40;;
261;SDS011;114;48.260;10.988;2023-03-01T03:20:06;19.13;;;14.47;;
261;SDS011;114;48.260;10.988;2023-03-01T03:22:37;20.30;;;13.50;;
261;SDS011;114;48.260;10.988;2023-03-01T03:25:05;21.93;;;13.37;;
261;SDS011;114;48.260;10.988;2023-03-01T03:27:37;17.33;;;13.90;;
261;SDS011;114;48.260;10.988;2023-03-01T03:30:05;19.00;;;13.87;;
261;SDS011;114;48.260;10.988;2023-03-01T03:32:37;17.93;;;14.17;;
261;SDS011;114;48.260;10.988;2023-03-01T03:35:04;23.40;;;14.23;;
261;SDS011;114;48.260;10.988;2023-03-01T03:37:43;20.23;;;14.00;;
261;SDS011;114;48.260;10.988;2023-03-01T03:40:28;17.40;;;13.93;;
261;SDS011;114;48.260;10.988;2023-03-01T03:42:54;18.23;;;13.30;;
261;SDS011;114;48.260;10.988;2023-03-01T03:45:20;18.10;;;14.17;;
261;SDS011;114;48.260;10.988;2023-03-01T03:47:46;17.30;;;13.50;;
261;SDS011;114;48.260;10.988;2023-03-01T03:50:13;17.60;;;13.93;;
261;SDS011;114;48.260;10.988;2023-03-01T03:52:40;16.73;;;13.80;;
261;SDS011;114;48.260;10.988;2023-03-01T03:55:07;17.47;;;13.03;;
261;SDS011;114;48.260;10.988;2023-03-01T03:57:34;17.40;;;13.40;;
261;SDS011;114;48.260;10.988;2023-03-01T04:00:00;19.90;;;13.47;;
261;SDS011;114;48.260;10.988;2023-03-01T04:02:29;16.70;;;13.70;;
261;SDS011;114;48.260;10.988;2023-03-01T04:04:55;19.93;;;14.03;;
261;SDS011;114;48.260;10.988;2023-03-01T04:07:21;18.87;;;13.63;;
261;SDS011;114;48.260;10.988;2023-03-01T04:09:46;20.50;;;14.87;;
261;SDS011;114;48.260;10.988;2023-03-01T04:12:12;19.57;;;14.13;;
261;SDS011;114;48.260;10.988;2023-03-01T04:14:38;18.90;;;15.10;;
261;SDS011;114;48.260;10.988;2023-03-01T04:17:04;17.80;;;13.40;;
261;SDS011;114;48.260;10.988;2023-03-01T04:19:32;21.90;;;13.90;;
261;SDS011;114;48.260;10.988;2023-03-01T04:22:03;18.00;;;13.27;;
261;SDS011;114;48.260;10.988;2023-03-01T04:24:36;18.87;;;14.43;;
261;SDS011;114;48.260;10.988;2023-03-01T04:27:03;20.53;;;14.73;;
261;SDS011;114;48.260;10.988;2023-03-01T04:29:29;19.13;;;13.90;;
261;SDS011;114;48.260;10.988;2023-03-01T04:31:54;17.90;;;13.50;;
261;SDS011;114;48.260;10.988;2023-03-01T04:34:20;25.37;;;15.00;;
261;SDS011;114;48.260;10.988;2023-03-01T04:36:46;26.00;;;14.60;;
261;SDS011;114;48.260;10.988;2023-03-01T04:39:12;17.90;;;13.70;;
261;SDS011;114;48.260;10.988;2023-03-01T04:41:38;18.00;;;13.67;;
261;SDS011;114;48.260;10.988;2023-03-01T04:44:04;16.30;;;13.40;;
261;SDS011;114;48.260;10.988;2023-03-01T04:46:34;19.63;;;14.93;;
261;SDS011;114;48.260;10.988;2023-03-01T04:49:01;17.23;;;13.57;;
261;SDS011;114;48.260;10.988;2023-03-01T04:51:27;16.00;;;12.87;;
261;SDS011;114;48.260;10.988;2023-03-01T04:53:54;20.40;;;15.40;;
261;SDS011;114;48.260;10.988;2023-03-01T04:56:20;16.57;;;13.10;;
261;SDS011;114;48.260;10.988;2023-03-01T04:58:48;21.13;;;15.40;;
261;SDS011;114;48.260;10.988;2023-03-01T05:01:15;18.03;;;14.17;;
261;SDS011;114;48.260;10.988;2023-03-01T05:03:43;17.90;;;12.67;;
261;SDS011;114;48.260;10.988;2023-03-01T05:06:10;19.30;;;14.20;;
261;SDS011;114;48.260;10.988;2023-03-01T05:08:37;21.23;;;14.23;;
261;SDS011;114;48.260;10.988;2023-03-01T05:11:04;18.20;;;14.33;;
261;SDS011;114;48.260;10.988;2023-03-01T05:13:30;18.53;;;13.90;;
261;SDS011;114;48.260;10.988;2023-03-01T05:15:58;19.27;;;14.60;;
261;SDS011;114;48.260;10.988;2023-03-01T05:18:25;19.93;;;14.40;;
261;SDS011;114;48.260;10.988;2023-03-01T05:20:53;20.70;;;14.93;;
261;SDS011;114;48.260;10.988;2023-03-01T05:23:23;19.70;;;13.83;;
261;SDS011;114;48.260;10.988;2023-03-01T05:25:49;20.00;;;13.93;;
261;SDS011;114;48.260;10.988;2023-03-01T05:28:17;18.37;;;15.07;;
261;SDS011;114;48.260;10.988;2023-03-01T05:30:45;21.60;;;13.83;;
261;SDS011;114;48.260;10.988;2023-03-01T05:33:11;23.80;;;15.10;;
261;SDS011;114;48.260;10.988;2023-03-01T05:35:41;21.10;;;14.43;;
261;SDS011;114;48.260;10.988;2023-03-01T05:38:12;22.43;;;15.60;;
261;SDS011;114;48.260;10.988;2023-03-01T05:40:38;25.17;;;15.67;;
261;SDS011;114;48.260;10.988;2023-03-01T05:43:05;23.63;;;14.80;;
261;SDS011;114;48.260;10.988;2023-03-01T05:45:32;21.23;;;14.63;;
261;SDS011;114;48.260;10.988;2023-03-01T05:48:00;24.37;;;15.43;;
261;SDS011;114;48.260;10.988;2023-03-01T05:50:27;23.07;;;15.63;;
261;SDS011;114;48.260;10.988;2023-03-01T05:53:00;21.50;;;15.33;;
261;SDS011;114;48.260;10.988;2023-03-01T05:55:27;21.50;;;16.37;;
261;SDS011;114;48.260;10.988;2023-03-01T05:57:54;20.17;;;15.40;;
261;SDS011;114;48.260;10.988;2023-03-01T06:00:21;23.73;;;15.90;;
261;SDS011;114;48.260;10.988;2023-03-01T06:02:47;20.33;;;15.17;;
261;SDS011;114;48.260;10.988;2023-03-01T06:05:14;19.37;;;15.13;;
261;SDS011;114;48.260;10.988;2023-03-01T06:07:40;22.33;;;14.67;;
261;SDS011;114;48.260;10.988;2023-03-01T06:10:06;22.60;;;15.00;;
261;SDS011;114;48.260;10.988;2023-03-01T06:12:34;19.83;;;14.60;;
261;SDS011;114;48.260;10.988;2023-03-01T06:15:01;26.10;;;15.83;;
261;SDS011;114;48.260;10.988;2023-03-01T06:17:29;24.23;;;15.47;;
261;SDS011;114;48.260;10.988;2023-03-01T06:19:56;23.30;;;15.73;;
261;SDS011;114;48.260;10.988;2023-03-01T06:22:22;17.80;;;13.50;;
261;SDS011;114;48.260;10.988;2023-03-01T06:24:48;22.50;;;14.37;;
261;SDS011;114;48.260;10.988;2023-03-01T06:27:14;23.63;;;14.67;;
261;SDS011;114;48.260;10.988;2023-03-01T06:29:39;17.93;;;14.80;;
261;SDS011;114;48.260;10.988;2023-03-01T06:32:05;20.83;;;14.67;;
261;SDS011;114;48.260;10.988;2023-03-01T06:34:33;22.40;;;14.43;;
261;SDS011;114;48.260;10.988;2023-03-01T06:36:58;17.40;;;14.33;;
261;SDS011;114;48.260;10.988;2023-03-01T06:39:24;20.40;;;15.10;;
261;SDS011;114;48.260;10.988;2023-03-01T06:41:53;21.53;;;14.67;;
261;SDS011;114;48.260;10.988;2023-03-01T06:44:21;20.47;;;14.17;;
261;SDS011;114;48.260;10.988;2023-03-01T06:46:47;25.03;;;15.23;;
261;SDS011;114;48.260;10.988;2023-03-01T06:49:13;22.07;;;15.90;;
261;SDS011;114;48.260;10.988;2023-03-01T06:51:41;21.53;;;15.00;;
261;SDS011;114;48.260;10.988;2023-03-01T06:54:07;20.00;;;15.53;;
261;SDS011;114;48.260;10.988;2023-03-01T06:56:33;20.33;;;14.90;;
261;SDS011;114;48.260;10.988;2023-03-01T06:58:58;19.17;;;14.10;;
261;SDS011;114;48.260;10.988;2023-03-01T07:01:24;19.77;;;14.20;;
261;SDS011;114;48.260;10.988;2023-03-01T07:03:50;22.63;;;14.67;;
261;SDS011;114;48.260;10.988;2023-03-01T07:06:16;21.60;;;14.87;;
261;SDS011;114;48.260;10.988;2023-03-01T07:08:42;18.90;;;14.63;;
261;SDS011;114;48.260;10.988;2023-03-01T07:11:08;19.53;;;14.40;;
261;SDS011;114;48.260;10.988;2023-03-01T07:13:34;21.60;;;14.60;;
261;SDS011;114;48.260;10.988;2023-03-01T07:16:00;22.33;;;14.30;;
261;SDS011;114;48.260;10.988;2023-03-01T07:18:26;22.50;;;13.60;;
261;SDS011;114;48.260;10.988;2023-03-01T07:20:51;18.90;;;14.10;;
261;SDS011;114;48.260;10.988;2023-03-01T07:23:17;21.47;;;14.57;;
261;SDS011;114;48.260;10.988;2023-03-01T07:25:43;19.60;;;15.30;;
261;SDS011;114;48.260;10.988;2023-03-01T07:28:09;20.60;;;13.77;;
261;SDS011;114;48.260;10.988;2023-03-01T07:30:35;18.17;;;13.73;;
261;SDS011;114;48.260;10.988;2023-03-01T07:33:01;19.03;;;13.73;;
261;SDS011;114;48.260;10.988;2023-03-01T07:35:27;16.53;;;13.50;;
261;SDS011;114;48.260;10.988;2023-03-01T07:37:53;18.77;;;13.97;;
261;SDS011;114;48.260;10.988;2023-03-01T07:40:19;23.73;;;15.07;;
261;SDS011;114;48.260;10.988;2023-03-01T07:42:45;22.97;;;15.23;;
261;SDS011;114;48.260;10.988;2023-03-01T07:45:11;20.80;;;15.30;;
261;SDS011;114;48.260;10.988;2023-03-01T07:47:38;17.77;;;13.67;;
261;SDS011;114;48.260;10.988;2023-03-01T07:50:04;23.23;;;14.87;;
261;SDS011;114;48.260;10.988;2023-03-01T07:52:30;23.37;;;14.10;;
261;SDS011;114;48.260;10.988;2023-03-01T07:54:56;24.20;;;15.33;;
261;SDS011;114;48.260;10.988;2023-03-01T07:57:22;22.93;;;15.40;;
261;SDS011;114;48.260;10.988;2023-03-01T07:59:48;24.90;;;15.57;;
261;SDS011;114;48.260;10.988;2023-03-01T08:02:14;26.27;;;15.17;;
261;SDS011;114;48.260;10.988;2023-03-01T08:04:40;21.67;;;14.80;;
261;SDS011;114;48.260;10.988;2023-03-01T08:07:07;22.53;;;14.93;;
261;SDS011;114;48.260;10.988;2023-03-01T08:09:36;22.60;;;15.70;;
261;SDS011;114;48.260;10.988;2023-03-01T08:12:02;22.10;;;15.00;;
261;SDS011;114;48.260;10.988;2023-03-01T08:14:29;21.37;;;15.73;;
261;SDS011;114;48.260;10.988;2023-03-01T08:16:56;18.50;;;13.50;;
261;SDS011;114;48.260;10.988;2023-03-01T08:19:22;25.53;;;15.33;;
261;SDS011;114;48.260;10.988;2023-03-01T08:21:48;18.53;;;14.13;;
261;SDS011;114;48.260;10.988;2023-03-01T08:24:14;22.70;;;15.10;;
261;SDS011;114;48.260;10.988;2023-03-01T08:26:40;20.83;;;13.83;;
261;SDS011;114;48.260;10.988;2023-03-01T08:29:06;22.80;;;14.43;;
261;SDS011;114;48.260;10.988;2023-03-01T08:31:35;23.93;;;16.10;;
261;SDS011;114;48.260;10.988;2023-03-01T08:34:07;22.80;;;14.70;;
261;SDS011;114;48.260;10.988;2023-03-01T08:36:36;18.20;;;14.30;;
261;SDS011;114;48.260;10.988;2023-03-01T08:39:03;21.47;;;15.17;;
261;SDS011;114;48.260;10.988;2023-03-01T08:41:29;19.80;;;14.47;;
261;SDS011;114;48.260;10.988;2023-03-01T08:43:55;23.43;;;15.30;;
261;SDS011;114;48.260;10.988;2023-03-01T08:46:25;19.10;;;14.17;;
261;SDS011;114;48.260;10.988;2023-03-01T08:48:52;21.27;;;14.80;;
261;SDS011;114;48.260;10.988;2023-03-01T08:51:18;23.00;;;15.50;;
261;SDS011;114;48.260;10.988;2023-03-01T08:53:45;21.00;;;15.10;;
261;SDS011;114;48.260;10.988;2023-03-01T08:56:11;21.87;;;15.03;;
261;SDS011;114;48.260;10.988;2023-03-01T08:58:37;22.20;;;14.50;;
261;SDS011;114;48.260;10.988;2023-03-01T09:01:08;26.33;;;17.17;;
261;SDS011;114;48.260;10.988;2023-03-01T09:03:35;18.57;;;14.60;;
261;SDS011;114;48.260;10.988;2023-03-01T09:06:02;22.10;;;15.43;;
261;SDS011;114;48.260;10.988;2023-03-01T09:08:29;20.30;;;14.67;;
261;SDS011;114;48.260;10.988;2023-03-01T09:10:56;19.23;;;14.07;;
261;SDS011;114;48.260;10.988;2023-03-01T09:13:22;19.17;;;14.60;;
261;SDS011;114;48.260;10.988;2023-03-01T09:15:50;23.60;;;16.63;;
261;SDS011;114;48.260;10.988;2023-03-01T09:18:16;23.50;;;16.33;;
261;SDS011;114;48.260;10.988;2023-03-01T09:20:42;24.03;;;16.13;;
261;SDS011;114;48.260;10.988;2023-03-01T09:23:08;21.43;;;15.03;;
261;SDS011;114;48.260;10.988;2023-03-01T09:25:34;21.03;;;14.57;;
261;SDS011;114;48.260;10.988;2023-03-01T09:28:00;24.00;;;16.00;;
261;SDS011;114;48.260;10.988;2023-03-01T09:30:26;21.70;;;15.07;;
261;SDS011;114;48.260;10.988;2023-03-01T09:32:52;22.20;;;14.53;;
261;SDS011;114;48.260;10.988;2023-03-01T09:35:17;21.57;;;15.33;;
261;SDS011;114;48.260;10.988;2023-03-01T09:37:45;21.43;;;15.90;;
261;SDS011;114;48.260;10.988;2023-03-01T09:40:15;18.83;;;14.53;;
261;SDS011;114;48.260;10.988;2023-03-01T09:42:51;23.13;;;16.10;;
261;SDS011;114;48.260;10.988;2023-03-01T09:45:26;22.23;;;15.93;;
261;SDS011;114;48.260;10.988;2023-03-01T09:47:58;23.20;;;16.73;;
261;SDS011;114;48.260;10.988;2023-03-01T09:50:26;20.93;;;16.70;;
261;SDS011;114;48.260;10.988;2023-03-01T09:53:06;21.40;;;14.77;;
261;SDS011;114;48.260;10.988;2023-03-01T09:55:48;23.30;;;15.20;;
261;SDS011;114;48.260;10.988;2023-03-01T09:58:29;22.53;;;16.40;;
261;SDS011;114;48.260;10.988;2023-03-01T10:00:57;22.83;;;15.30;;
261;SDS011;114;48.260;10.988;2023-03-01T10:03:30;25.00;;;15.60;;
261;SDS011;114;48.260;10.988;2023-03-01T10:06:06;23.40;;;15.63;;
261;SDS011;114;48.260;10.988;2023-03-01T10:08:55;24.90;;;16.80;;
261;SDS011;114;48.260;10.988;2023-03-01T10:11:24;28.20;;;18.33;;
261;SDS011;114;48.260;10.988;2023-03-01T10:16:40;25.90;;;18.50;;
261;SDS011;114;48.260;10.988;2023-03-01T10:19:09;21.87;;;15.33;;
261;SDS011;114;48.260;10.988;2023-03-01T10:21:41;24.63;;;15.70;;
261;SDS011;114;48.260;10.988;2023-03-01T10:24:12;20.80;;;16.20;;
261;SDS011;114;48.260;10.988;2023-03-01T10:26:43;22.63;;;15.50;;
261;SDS011;114;48.260;10.988;2023-03-01T10:29:18;24.77;;;16.20;;
261;SDS011;114;48.260;10.988;2023-03-01T10:31:50;23.67;;;16.47;;
261;SDS011;114;48.260;10.988;2023-03-01T10:34:19;20.20;;;16.13;;
261;SDS011;114;48.260;10.988;2023-03-01T10:36:49;19.60;;;15.10;;
261;SDS011;114;48.260;10.988;2023-03-01T10:39:21;23.27;;;17.30;;
261;SDS011;114;48.260;10.988;2023-03-01T10:41:53;19.20;;;14.60;;
261;SDS011;114;48.260;10.988;2023-03-01T10:44:38;19.53;;;15.10;;
261;SDS011;114;48.260;10.988;2023-03-01T10:47:27;22.60;;;14.40;;
261;SDS011;114;48.260;10.988;2023-03-01T10:52:26;19.83;;;13.63;;
261;SDS011;114;48.260;10.988;2023-03-01T10:54:58;21.50;;;14.20;;
261;SDS011;114;48.260;10.988;2023-03-01T10:57:34;22.30;;;16.07;;
261;SDS011;114;48.260;10.988;2023-03-01T11:03:10;21.83;;;16.03;;
261;SDS011;114;48.260;10.988;2023-03-01T11:05:37;20.60;;;15.70;;
261;SDS011;114;48.260;10.988;2023-03-01T11:11:25;24.00;;;16.17;;
261;SDS011;114;48.260;10.988;2023-03-01T11:13:58;26.67;;;16.03;;
261;SDS011;114;48.260;10.988;2023-03-01T11:16:38;24.17;;;16.67;;
261;SDS011;114;48.260;10.988;2023-03-01T11:24:09;20.17;;;16.20;;
261;SDS011;114;48.260;10.988;2023-03-01T11:26:39;27.67;;;17.67;;
261;SDS011;114;48.260;10.988;2023-03-01T11:29:15;20.47;;;15.57;;
261;SDS011;114;48.260;10.988;2023-03-01T11:32:03;18.00;;;15.30;;
261;SDS011;114;48.260;10.988;2023-03-01T11:34:38;23.27;;;17.13;;
261;SDS011;114;48.260;10.988;2023-03-01T11:37:19;20.40;;;16.70;;
261;SDS011;114;48.260;10.988;2023-03-01T11:40:03;21.23;;;17.17;;
261;SDS011;114;48.260;10.988;2023-03-01T11:45:21;22.90;;;17.77;;
261;SDS011;114;48.260;10.988;2023-03-01T11:48:01;22.33;;;17.60;;
261;SDS011;114;48.260;10.988;2023-03-01T12:04:03;21.13;;;17.60;;
261;SDS011;114;48.260;10.988;2023-03-01T12:07:00;22.03;;;16.90;;
261;SDS011;114;48.260;10.988;2023-03-01T12:09:49;21.00;;;18.07;;
261;SDS011;114;48.260;10.988;2023-03-01T12:21:05;24.07;;;17.60;;
261;SDS011;114;48.260;10.988;2023-03-01T12:23:39;21.77;;;17.10;;
261;SDS011;114;48.260;10.988;2023-03-01T12:31:49;20.70;;;18.50;;
261;SDS011;114;48.260;10.988;2023-03-01T12:34:54;21.30;;;17.50;;
261;SDS011;114;48.260;10.988;2023-03-01T12:43:12;20.70;;;17.60;;
261;SDS011;114;48.260;10.988;2023-03-01T12:45:44;21.23;;;18.57;;
261;SDS011;114;48.260;10.988;2023-03-01T12:48:30;20.23;;;18.20;;
261;SDS011;114;48.260;10.988;2023-03-01T12:51:08;20.33;;;18.20;;
261;SDS011;114;48.260;10.988;2023-03-01T12:53:44;19.87;;;17.27;;
261;SDS011;114;48.260;10.988;2023-03-01T12:56:14;21.27;;;16.87;;
261;SDS011;114;48.260;10.988;2023-03-01T13:20:15;24.07;;;17.30;;
261;SDS011;114;48.260;10.988;2023-03-01T13:22:42;23.80;;;17.83;;
261;SDS011;114;48.260;10.988;2023-03-01T13:25:18;23.93;;;17.13;;
261;SDS011;114;48.260;10.988;2023-03-01T13:27:45;20.37;;;16.77;;
261;SDS011;114;48.260;10.988;2023-03-01T13:30:57;18.93;;;16.07;;
261;SDS011;114;48.260;10.988;2023-03-01T13:35:53;21.10;;;16.43;;
261;SDS011;114;48.260;10.988;2023-03-01T13:41:11;19.97;;;17.30;;
261;SDS011;114;48.260;10.988;2023-03-01T13:43:40;22.20;;;17.40;;
261;SDS011;114;48.260;10.988;2023-03-01T13:46:12;18.90;;;16.47;;
261;SDS011;114;48.260;10.988;2023-03-01T13:48:47;18.73;;;15.97;;
261;SDS011;114;48.260;10.988;2023-03-01T13:51:21;23.27;;;16.63;;
261;SDS011;114;48.260;10.988;2023-03-01T13:53:50;18.97;;;16.43;;
261;SDS011;114;48.260;10.988;2023-03-01T13:56:38;20.47;;;17.40;;
261;SDS011;114;48.260;10.988;2023-03-01T13:59:05;18.83;;;15.67;;
261;SDS011;114;48.260;10.988;2023-03-01T14:01:40;22.40;;;17.83;;
261;SDS011;114;48.260;10.988;2023-03-01T14:07:23;19.37;;;16.37;;
261;SDS011;114;48.260;10.988;2023-03-01T14:09:54;25.83;;;16.77;;
261;SDS011;114;48.260;10.988;2023-03-01T14:20:49;19.30;;;16.17;;
261;SDS011;114;48.260;10.988;2023-03-01T14:23:22;22.23;;;15.87;;
261;SDS011;114;48.260;10.988;2023-03-01T14:25:53;19.53;;;16.00;;
261;SDS011;114;48.260;10.988;2023-03-01T14:30:49;21.27;;;16.73;;
261;SDS011;114;48.260;10.988;2023-03-01T14:33:37;21.40;;;16.87;;
261;SDS011;114;48.260;10.988;2023-03-01T14:36:05;18.87;;;15.63;;
261;SDS011;114;48.260;10.988;2023-03-01T14:38:37;19.97;;;17.17;;
261;SDS011;114;48.260;10.988;2023-03-01T14:46:28;18.43;;;15.30;;
261;SDS011;114;48.260;10.988;2023-03-01T14:51:42;18.10;;;15.60;;
261;SDS011;114;48.260;10.988;2023-03-01T14:56:54;24.93;;;15.33;;
261;SDS011;114;48.260;10.988;2023-03-01T14:59:23;19.03;;;15.33;;
261;SDS011;114;48.260;10.988;2023-03-01T15:01:52;20.87;;;15.60;;
261;SDS011;114;48.260;10.988;2023-03-01T15:04:21;25.77;;;15.43;;
261;SDS011;114;48.260;10.988;2023-03-01T15:06:52;29.73;;;15.90;;
261;SDS011;114;48.260;10.988;2023-03-01T15:09:19;22.37;;;17.47;;
261;SDS011;114;48.260;10.988;2023-03-01T15:11:46;20.33;;;15.97;;
261;SDS011;114;48.260;10.988;2023-03-01T15:20:15;27.37;;;15.03;;
261;SDS011;114;48.260;10.988;2023-03-01T15:22:43;20.37;;;15.23;;
261;SDS011;114;48.260;10.988;2023-03-01T15:25:20;19.37;;;14.63;;
261;SDS011;114;48.260;10.988;2023-03-01T15:27:49;19.40;;;15.53;;
261;SDS011;114;48.260;10.988;2023-03-01T15:30:37;18.83;;;13.93;;
261;SDS011;114;48.260;10.988;2023-03-01T15:35:52;20.10;;;14.60;;
261;SDS011;114;48.260;10.988;2023-03-01T15:41:31;22.20;;;14.60;;
261;SDS011;114;48.260;10.988;2023-03-01T15:44:14;21.87;;;14.97;;
261;SDS011;114;48.260;10.988;2023-03-01T15:46:44;22.30;;;14.17;;
261;SDS011;114;48.260;10.988;2023-03-01T15:51:51;20.23;;;13.50;;
261;SDS011;114;48.260;10.988;2023-03-01T15:54:20;20.10;;;14.33;;
261;SDS011;114;48.260;10.988;2023-03-01T15:56:48;18.20;;;13.83;;
261;SDS011;114;48.260;10.988;2023-03-01T15:59:15;18.83;;;14.53;;
261;SDS011;114;48.260;10.988;2023-03-01T16:01:42;22.33;;;14.93;;
261;SDS011;114;48.260;10.988;2023-03-01T16:04:09;23.10;;;15.60;;
261;SDS011;114;48.260;10.988;2023-03-01T16:06:41;24.93;;;14.27;;
261;SDS011;114;48.260;10.988;2023-03-01T16:09:07;21.37;;;14.10;;
261;SDS011;114;48.260;10.988;2023-03-01T16:11:35;24.97;;;15.63;;
261;SDS011;114;48.260;10.988;2023-03-01T16:14:02;24.73;;;15.13;;
261;SDS011;114;48.260;10.988;2023-03-01T16:16:27;33.83;;;18.43;;
261;SDS011;114;48.260;10.988;2023-03-01T16:18:54;22.00;;;15.47;;
261;SDS011;114;48.260;10.988;2023-03-01T16:21:21;20.93;;;16.77;;
261;SDS011;114;48.260;10.988;2023-03-01T16:23:48;30.23;;;16.10;;
261;SDS011;114;48.260;10.988;2023-03-01T16:26:14;18.37;;;14.10;;
261;SDS011;114;48.260;10.988;2023-03-01T16:28:42;25.03;;;15.37;;
261;SDS011;114;48.260;10.988;2023-03-01T16:31:09;18.63;;;14.70;;
261;SDS011;114;48.260;10.988;2023-03-01T16:33:35;22.10;;;14.40;;
261;SDS011;114;48.260;10.988;2023-03-01T16:36:11;18.70;;;14.20;;
261;SDS011;114;48.260;10.988;2023-03-01T16:38:37;20.90;;;14.73;;
261;SDS011;114;48.260;10.988;2023-03-01T16:41:03;27.77;;;15.30;;
261;SDS011;114;48.260;10.988;2023-03-01T16:43:30;21.87;;;14.90;;
261;SDS011;114;48.260;10.988;2023-03-01T16:45:57;18.93;;;14.70;;
261;SDS011;114;48.260;10.988;2023-03-01T16:48:24;18.57;;;15.40;;
261;SDS011;114;48.260;10.988;2023-03-01T16:50:59;20.53;;;15.87;;
261;SDS011;114;48.260;10.988;2023-03-01T16:53:26;21.13;;;16.60;;
261;SDS011;114;48.260;10.988;2023-03-01T16:55:53;28.10;;;17.93;;
261;SDS011;114;48.260;10.988;2023-03-01T16:58:23;26.53;;;20.07;;
261;SDS011;114;48.260;10.988;2023-03-01T17:00:52;31.63;;;18.83;;
261;SDS011;114;48.260;10.988;2023-03-01T17:03:22;23.67;;;17.50;;
261;SDS011;114;48.260;10.988;2023-03-01T17:05:51;29.97;;;20.10;;
261;SDS011;114;48.260;10.988;2023-03-01T17:08:17;24.30;;;17.87;;
261;SDS011;114;48.260;10.988;2023-03-01T17:10:43;21.90;;;16.10;;
261;SDS011;114;48.260;10.988;2023-03-01T17:13:09;23.93;;;16.23;;
261;SDS011;114;48.260;10.988;2023-03-01T17:15:39;20.77;;;15.37;;
261;SDS011;114;48.260;10.988;2023-03-01T17:18:06;24.83;;;16.73;;
261;SDS011;114;48.260;10.988;2023-03-01T17:20:32;23.67;;;16.30;;